sensor_id;sensor_type;location;lat;lon;timestamp;pressure;altitude;pressure_sealevel;temperature;humidity
39739;BME280;25422;48.286;8.484;2022-09-13T00:00:03;93796.44;;;10.42;100.00
39739;BME280;25422;48.286;8.484;2022-09-13T00:02:30;93791.56;;;10.39;100.00
39739;BME280;25422;48.286;8.484;2022-09-13T00:04:55;93790.75;;;10.39;100.00
39739;BME280;25422;48.286;8.484;2022-09-13T00:07:21;93800.25;;;10.32;100.00
39739;BME280;25422;48.286;8.484;2022-09-13T00:09:46;93783.78;;;10.31;100.00
39739;BME280;25422;48.286;8.484;2022-09-13T00:12:12;93795.22;;;10.30;100.00
39739;BME280;25422;48.286;8.484;2022-09-13T00:14:37;93788.72;;;10.26;100.00
39739;BME280;25422;48.286;8.484;2022-09-13T00:17:02;93799.00;;;10.27;100.00
39739;BME280;25422;48.286;8.484;2022-09-13T00:19:28;93797.03;;;10.29;100.00
39739;BME280;25422;48.286;8.484;2022-09-13T00:21:53;93801.44;;;10.29;100.00
39739;BME280;25422;48.286;8.484;2022-09-13T00:24:19;93798.19;;;10.27;100.00
39739;BME280;25422;48.286;8.484;2022-09-13T00:26:44;93792.69;;;10.22;100.00
39739;BME280;25422;48.286;8.484;2022-09-13T00:29:10;93792.56;;;10.15;100.00
39739;BME280;25422;48.286;8.484;2022-09-13T00:31:35;93776.78;;;10.08;100.00
39739;BME280;25422;48.286;8.484;2022-09-13T00:34:01;93778.13;;;10.04;100.00
39739;BME280;25422;48.286;8.484;2022-09-13T00:36:27;93778.28;;;10.03;100.00
39739;BME280;25422;48.286;8.484;2022-09-13T00:38:52;93776.31;;;10.05;100.00
39739;BME280;25422;48.286;8.484;2022-09-13T00:41:19;93763.41;;;10.03;100.00
39739;BME280;25422;48.286;8.484;2022-09-13T00:43:49;93757.19;;;10.04;100.00
39739;BME280;25422;48.286;8.484;2022-09-13T00:46:41;93766.78;;;10.12;100.00
39739;BME280;25422;48.286;8.484;2022-09-13T00:49:21;93766.72;;;10.20;100.00
39739;BME280;25422;48.286;8.484;2022-09-13T00:51:49;93762.56;;;10.26;100.00
39739;BME280;25422;48.286;8.484;2022-09-13T00:54:18;93767.63;;;10.27;100.00
39739;BME280;25422;48.286;8.484;2022-09-13T00:56:52;93765.88;;;10.20;100.00
39739;BME280;25422;48.286;8.484;2022-09-13T00:59:43;93776.22;;;10.13;100.00
39739;BME280;25422;48.286;8.484;2022-09-13T01:02:12;93775.78;;;10.09;100.00
39739;BME280;25422;48.286;8.484;2022-09-13T01:04:39;93781.63;;;10.11;100.00
39739;BME280;25422;48.286;8.484;2022-09-13T01:07:07;93769.63;;;10.02;100.00
39739;BME280;25422;48.286;8.484;2022-09-13T01:09:39;93774.59;;;9.97;100.00
39739;BME280;25422;48.286;8.484;2022-09-13T01:12:18;93776.72;;;9.93;100.00
39739;BME280;25422;48.286;8.484;2022-09-13T01:14:48;93771.38;;;9.87;100.00
39739;BME280;25422;48.286;8.484;2022-09-13T01:17:14;93772.38;;;9.86;100.00
39739;BME280;25422;48.286;8.484;2022-09-13T01:19:40;93766.34;;;9.85;100.00
39739;BME280;25422;48.286;8.484;2022-09-13T01:25:38;93768.13;;;9.85;100.00
39739;BME280;25422;48.286;8.484;2022-09-13T01:31:45;93762.63;;;9.79;100.00
39739;BME280;25422;48.286;8.484;2022-09-13T01:34:31;93760.34;;;9.76;100.00
39739;BME280;25422;48.286;8.484;2022-09-13T01:47:26;93752.63;;;9.60;100.00
39739;BME280;25422;48.286;8.484;2022-09-13T01:50:05;93744.16;;;9.58;100.00
39739;BME280;25422;48.286;8.484;2022-09-13T01:57:52;93757.78;;;9.45;100.00
39739;BME280;25422;48.286;8.484;2022-09-13T02:00:18;93762.38;;;9.43;100.00
39739;BME280;25422;48.286;8.484;2022-09-13T02:03:05;93773.44;;;9.45;100.00
39739;BME280;25422;48.286;8.484;2022-09-13T02:05:43;93773.97;;;9.40;100.00
39739;BME280;25422;48.286;8.484;2022-09-13T02:08:15;93776.59;;;9.40;100.00
39739;BME280;25422;48.286;8.484;2022-09-13T02:10:57;93778.38;;;9.40;100.00
39739;BME280;25422;48.286;8.484;2022-09-13T02:13:28;93781.81;;;9.40;100.00
39739;BME280;25422;48.286;8.484;2022-09-13T02:16:00;93775.50;;;9.35;100.00
39739;BME280;25422;48.286;8.484;2022-09-13T02:18:34;93782.16;;;9.37;100.00
39739;BME280;25422;48.286;8.484;2022-09-13T02:21:15;93773.03;;;9.33;100.00
39739;BME280;25422;48.286;8.484;2022-09-13T02:23:47;93786.72;;;9.35;100.00
39739;BME280;25422;48.286;8.484;2022-09-13T02:26:14;93784.66;;;9.31;100.00
39739;BME280;25422;48.286;8.484;2022-09-13T02:28:45;93789.03;;;9.30;100.00
39739;BME280;25422;48.286;8.484;2022-09-13T02:31:13;93791.03;;;9.28;100.00
39739;BME280;25422;48.286;8.484;2022-09-13T02:33:43;93790.53;;;9.24;100.00
39739;BME280;25422;48.286;8.484;2022-09-13T02:36:19;93788.78;;;9.17;100.00
39739;BME280;25422;48.286;8.484;2022-09-13T02:38:53;93788.97;;;9.07;100.00
39739;BME280;25422;48.286;8.484;2022-09-13T02:41:47;93789.97;;;9.06;100.00
39739;BME280;25422;48.286;8.484;2022-09-13T02:47:10;93775.16;;;8.98;100.00
39739;BME280;25422;48.286;8.484;2022-09-13T02:49:53;93774.69;;;8.94;100.00
39739;BME280;25422;48.286;8.484;2022-09-13T02:55:41;93761.88;;;8.76;100.00
39739;BME280;25422;48.286;8.484;2022-09-13T02:58:33;93759.28;;;8.76;100.00
39739;BME280;25422;48.286;8.484;2022-09-13T03:01:05;93760.28;;;8.67;100.00
39739;BME280;25422;48.286;8.484;2022-09-13T03:03:31;93759.97;;;8.62;100.00
39739;BME280;25422;48.286;8.484;2022-09-13T03:05:56;93759.78;;;8.64;100.00
39739;BME280;25422;48.286;8.484;2022-09-13T03:08:22;93757.63;;;8.75;100.00
39739;BME280;25422;48.286;8.484;2022-09-13T03:11:06;93755.22;;;8.74;100.00
39739;BME280;25422;48.286;8.484;2022-09-13T03:25:26;93753.63;;;8.56;100.00
39739;BME280;25422;48.286;8.484;2022-09-13T03:30:42;93739.47;;;8.42;100.00
39739;BME280;25422;48.286;8.484;2022-09-13T03:33:31;93746.31;;;8.35;100.00
39739;BME280;25422;48.286;8.484;2022-09-13T03:36:34;93740.09;;;8.44;100.00
39739;BME280;25422;48.286;8.484;2022-09-13T03:41:42;93729.47;;;8.63;100.00
39739;BME280;25422;48.286;8.484;2022-09-13T03:44:11;93737.81;;;8.58;100.00
39739;BME280;25422;48.286;8.484;2022-09-13T03:46:44;93732.59;;;8.58;100.00
39739;BME280;25422;48.286;8.484;2022-09-13T03:49:16;93733.13;;;8.53;100.00
39739;BME280;25422;48.286;8.484;2022-09-13T03:51:44;93746.94;;;8.54;100.00
39739;BME280;25422;48.286;8.484;2022-09-13T03:54:17;93740.91;;;8.62;100.00
39739;BME280;25422;48.286;8.484;2022-09-13T03:57:16;93737.97;;;8.65;100.00
39739;BME280;25422;48.286;8.484;2022-09-13T03:59:51;93734.22;;;8.59;100.00
39739;BME280;25422;48.286;8.484;2022-09-13T04:02:18;93734.53;;;8.56;100.00
39739;BME280;25422;48.286;8.484;2022-09-13T04:04:45;93737.81;;;8.58;100.00
39739;BME280;25422;48.286;8.484;2022-09-13T04:07:15;93742.38;;;8.56;100.00
39739;BME280;25422;48.286;8.484;2022-09-13T04:09:41;93745.31;;;8.53;100.00
39739;BME280;25422;48.286;8.484;2022-09-13T04:12:06;93747.28;;;8.59;100.00
39739;BME280;25422;48.286;8.484;2022-09-13T04:14:34;93743.66;;;8.68;100.00
39739;BME280;25422;48.286;8.484;2022-09-13T04:17:00;93744.78;;;8.74;100.00
39739;BME280;25422;48.286;8.484;2022-09-13T04:19:25;93747.53;;;8.81;100.00
39739;BME280;25422;48.286;8.484;2022-09-13T04:21:52;93753.06;;;8.86;100.00
39739;BME280;25422;48.286;8.484;2022-09-13T04:24:19;93748.13;;;8.91;100.00
39739;BME280;25422;48.286;8.484;2022-09-13T04:26:49;93752.34;;;8.92;100.00
39739;BME280;25422;48.286;8.484;2022-09-13T04:29:16;93750.44;;;8.86;100.00
39739;BME280;25422;48.286;8.484;2022-09-13T04:31:44;93745.22;;;8.77;100.00
39739;BME280;25422;48.286;8.484;2022-09-13T04:34:09;93742.31;;;8.81;100.00
39739;BME280;25422;48.286;8.484;2022-09-13T04:36:35;93741.47;;;8.80;100.00
39739;BME280;25422;48.286;8.484;2022-09-13T04:39:00;93744.28;;;8.70;100.00
39739;BME280;25422;48.286;8.484;2022-09-13T04:41:26;93744.81;;;8.66;100.00
39739;BME280;25422;48.286;8.484;2022-09-13T04:43:52;93750.03;;;8.66;100.00
39739;BME280;25422;48.286;8.484;2022-09-13T04:46:18;93746.75;;;8.64;100.00
39739;BME280;25422;48.286;8.484;2022-09-13T04:48:50;93749.19;;;8.65;100.00
39739;BME280;25422;48.286;8.484;2022-09-13T04:51:16;93753.75;;;8.71;100.00
39739;BME280;25422;48.286;8.484;2022-09-13T04:53:45;93752.09;;;8.70;100.00
39739;BME280;25422;48.286;8.484;2022-09-13T04:56:11;93761.94;;;8.60;100.00
39739;BME280;25422;48.286;8.484;2022-09-13T04:58:39;93746.13;;;8.62;100.00
39739;BME280;25422;48.286;8.484;2022-09-13T05:01:07;93742.84;;;8.59;100.00
39739;BME280;25422;48.286;8.484;2022-09-13T05:03:34;93756.88;;;8.50;100.00
39739;BME280;25422;48.286;8.484;2022-09-13T05:06:04;93758.19;;;8.54;100.00
39739;BME280;25422;48.286;8.484;2022-09-13T05:08:30;93757.72;;;8.51;100.00
39739;BME280;25422;48.286;8.484;2022-09-13T05:10:55;93754.78;;;8.46;100.00
39739;BME280;25422;48.286;8.484;2022-09-13T05:13:21;93763.25;;;8.48;100.00
39739;BME280;25422;48.286;8.484;2022-09-13T05:15:46;93760.00;;;8.46;100.00
39739;BME280;25422;48.286;8.484;2022-09-13T05:18:12;93760.34;;;8.51;100.00
39739;BME280;25422;48.286;8.484;2022-09-13T05:20:37;93758.19;;;8.54;100.00
39739;BME280;25422;48.286;8.484;2022-09-13T05:23:03;93760.31;;;8.59;100.00
39739;BME280;25422;48.286;8.484;2022-09-13T05:25:28;93758.81;;;8.65;100.00
39739;BME280;25422;48.286;8.484;2022-09-13T05:27:53;93757.31;;;8.70;100.00
39739;BME280;25422;48.286;8.484;2022-09-13T05:30:19;93765.47;;;8.75;100.00
39739;BME280;25422;48.286;8.484;2022-09-13T05:32:45;93762.16;;;8.82;100.00
39739;BME280;25422;48.286;8.484;2022-09-13T05:35:10;93772.59;;;8.90;100.00
39739;BME280;25422;48.286;8.484;2022-09-13T05:37:36;93781.69;;;9.02;100.00
39739;BME280;25422;48.286;8.484;2022-09-13T05:40:02;93785.13;;;8.94;100.00
39739;BME280;25422;48.286;8.484;2022-09-13T05:42:27;93778.75;;;8.97;100.00
39739;BME280;25422;48.286;8.484;2022-09-13T05:44:53;93777.44;;;9.01;100.00
39739;BME280;25422;48.286;8.484;2022-09-13T05:47:18;93770.84;;;9.14;100.00
39739;BME280;25422;48.286;8.484;2022-09-13T05:49:44;93765.59;;;9.22;100.00
39739;BME280;25422;48.286;8.484;2022-09-13T05:52:09;93764.09;;;9.27;100.00
39739;BME280;25422;48.286;8.484;2022-09-13T05:54:35;93768.28;;;9.37;100.00
39739;BME280;25422;48.286;8.484;2022-09-13T05:57:02;93763.78;;;9.54;100.00
39739;BME280;25422;48.286;8.484;2022-09-13T05:59:27;93763.31;;;9.73;100.00
39739;BME280;25422;48.286;8.484;2022-09-13T06:01:53;93762.84;;;9.93;100.00
39739;BME280;25422;48.286;8.484;2022-09-13T06:04:18;93764.31;;;10.10;100.00
39739;BME280;25422;48.286;8.484;2022-09-13T06:06:44;93772.03;;;10.27;100.00
39739;BME280;25422;48.286;8.484;2022-09-13T06:09:10;93767.03;;;10.40;100.00
39739;BME280;25422;48.286;8.484;2022-09-13T06:11:36;93764.44;;;10.55;100.00
39739;BME280;25422;48.286;8.484;2022-09-13T06:14:01;93768.06;;;10.69;100.00
39739;BME280;25422;48.286;8.484;2022-09-13T06:16:27;93770.75;;;10.91;100.00
39739;BME280;25422;48.286;8.484;2022-09-13T06:18:52;93766.22;;;11.14;100.00
39739;BME280;25422;48.286;8.484;2022-09-13T06:21:21;93767.97;;;11.44;100.00
39739;BME280;25422;48.286;8.484;2022-09-13T06:23:49;93759.56;;;11.70;100.00
39739;BME280;25422;48.286;8.484;2022-09-13T06:26:20;93762.97;;;12.07;100.00
39739;BME280;25422;48.286;8.484;2022-09-13T06:28:47;93766.53;;;12.50;100.00
39739;BME280;25422;48.286;8.484;2022-09-13T06:31:15;93770.19;;;12.84;100.00
39739;BME280;25422;48.286;8.484;2022-09-13T06:33:41;93764.84;;;13.54;100.00
39739;BME280;25422;48.286;8.484;2022-09-13T06:36:11;93781.34;;;14.23;100.00
39739;BME280;25422;48.286;8.484;2022-09-13T06:38:38;93780.34;;;14.84;100.00
39739;BME280;25422;48.286;8.484;2022-09-13T06:41:07;93780.94;;;15.51;100.00
39739;BME280;25422;48.286;8.484;2022-09-13T06:43:33;93775.50;;;16.24;100.00
39739;BME280;25422;48.286;8.484;2022-09-13T06:46:00;93780.56;;;17.19;100.00
39739;BME280;25422;48.286;8.484;2022-09-13T06:48:26;93766.09;;;18.32;94.64
39739;BME280;25422;48.286;8.484;2022-09-13T06:50:58;93764.00;;;19.52;83.95
39739;BME280;25422;48.286;8.484;2022-09-13T06:53:24;93773.75;;;20.50;70.98
39739;BME280;25422;48.286;8.484;2022-09-13T06:55:58;93774.03;;;21.83;63.90
39739;BME280;25422;48.286;8.484;2022-09-13T06:58:24;93775.50;;;23.16;56.80
39739;BME280;25422;48.286;8.484;2022-09-13T07:00:50;93769.50;;;24.10;50.30
39739;BME280;25422;48.286;8.484;2022-09-13T07:03:15;93764.75;;;23.58;49.69
39739;BME280;25422;48.286;8.484;2022-09-13T07:05:41;93758.25;;;23.97;48.34
39739;BME280;25422;48.286;8.484;2022-09-13T07:08:06;93762.56;;;24.29;49.44
39739;BME280;25422;48.286;8.484;2022-09-13T07:10:31;93760.44;;;24.31;46.77
39739;BME280;25422;48.286;8.484;2022-09-13T07:12:57;93755.81;;;23.90;47.88
39739;BME280;25422;48.286;8.484;2022-09-13T07:15:22;93760.03;;;23.81;50.33
39739;BME280;25422;48.286;8.484;2022-09-13T07:17:48;93762.31;;;24.36;49.20
39739;BME280;25422;48.286;8.484;2022-09-13T07:20:13;93756.44;;;24.49;48.03
39739;BME280;25422;48.286;8.484;2022-09-13T07:22:39;93760.75;;;24.86;48.58
39739;BME280;25422;48.286;8.484;2022-09-13T07:25:04;93765.56;;;24.79;47.85
39739;BME280;25422;48.286;8.484;2022-09-13T07:27:30;93759.91;;;24.55;48.25
39739;BME280;25422;48.286;8.484;2022-09-13T07:29:55;93757.00;;;24.62;48.65
39739;BME280;25422;48.286;8.484;2022-09-13T07:32:22;93763.66;;;25.26;47.80
39739;BME280;25422;48.286;8.484;2022-09-13T07:34:47;93755.81;;;26.21;46.33
39739;BME280;25422;48.286;8.484;2022-09-13T07:37:13;93757.63;;;26.25;45.00
39739;BME280;25422;48.286;8.484;2022-09-13T07:39:38;93748.28;;;26.18;44.48
39739;BME280;25422;48.286;8.484;2022-09-13T07:42:04;93752.56;;;26.58;44.60
39739;BME280;25422;48.286;8.484;2022-09-13T07:44:29;93742.38;;;26.61;43.69
39739;BME280;25422;48.286;8.484;2022-09-13T07:46:54;93741.38;;;26.51;44.20
39739;BME280;25422;48.286;8.484;2022-09-13T07:49:20;93744.09;;;25.25;46.97
39739;BME280;25422;48.286;8.484;2022-09-13T07:51:45;93742.56;;;24.83;48.30
39739;BME280;25422;48.286;8.484;2022-09-13T07:54:13;93746.16;;;23.84;51.09
39739;BME280;25422;48.286;8.484;2022-09-13T07:56:39;93748.41;;;24.23;51.81
39739;BME280;25422;48.286;8.484;2022-09-13T07:59:09;93753.69;;;23.93;51.28
39739;BME280;25422;48.286;8.484;2022-09-13T08:01:41;93756.41;;;24.23;52.50
39739;BME280;25422;48.286;8.484;2022-09-13T08:04:09;93748.41;;;24.44;52.91
39739;BME280;25422;48.286;8.484;2022-09-13T08:06:37;93752.44;;;24.98;50.71
39739;BME280;25422;48.286;8.484;2022-09-13T08:09:04;93756.34;;;25.63;49.03
39739;BME280;25422;48.286;8.484;2022-09-13T08:11:31;93763.22;;;25.79;48.91
39739;BME280;25422;48.286;8.484;2022-09-13T08:13:57;93758.72;;;26.24;48.25
39739;BME280;25422;48.286;8.484;2022-09-13T08:16:24;93763.69;;;25.91;48.33
39739;BME280;25422;48.286;8.484;2022-09-13T08:18:52;93764.78;;;25.90;47.78
39739;BME280;25422;48.286;8.484;2022-09-13T08:21:18;93760.94;;;26.12;48.16
39739;BME280;25422;48.286;8.484;2022-09-13T08:23:44;93761.72;;;26.57;47.59
39739;BME280;25422;48.286;8.484;2022-09-13T08:26:09;93753.19;;;26.05;46.71
39739;BME280;25422;48.286;8.484;2022-09-13T08:28:37;93757.69;;;26.15;47.36
39739;BME280;25422;48.286;8.484;2022-09-13T08:31:12;93762.91;;;25.91;48.31
39739;BME280;25422;48.286;8.484;2022-09-13T08:33:42;93753.09;;;25.61;49.87
39739;BME280;25422;48.286;8.484;2022-09-13T08:36:08;93746.84;;;25.86;50.54
39739;BME280;25422;48.286;8.484;2022-09-13T08:38:33;93752.91;;;26.12;48.39
39739;BME280;25422;48.286;8.484;2022-09-13T08:41:02;93747.69;;;26.71;47.95
39739;BME280;25422;48.286;8.484;2022-09-13T08:43:57;93733.84;;;26.88;44.79
39739;BME280;25422;48.286;8.484;2022-09-13T08:46:32;93739.16;;;26.58;46.25
39739;BME280;25422;48.286;8.484;2022-09-13T08:49:03;93738.81;;;26.75;47.17
39739;BME280;25422;48.286;8.484;2022-09-13T08:51:47;93739.34;;;27.02;46.15
39739;BME280;25422;48.286;8.484;2022-09-13T08:54:15;93731.09;;;26.64;46.51
39739;BME280;25422;48.286;8.484;2022-09-13T08:59:56;93711.63;;;26.82;46.38
39739;BME280;25422;48.286;8.484;2022-09-13T09:05:16;93716.19;;;27.84;43.22
39739;BME280;25422;48.286;8.484;2022-09-13T09:07:46;93716.44;;;27.82;43.17
39739;BME280;25422;48.286;8.484;2022-09-13T09:10:35;93708.16;;;27.59;43.17
39739;BME280;25422;48.286;8.484;2022-09-13T09:15:54;93712.97;;;27.38;41.83
39739;BME280;25422;48.286;8.484;2022-09-13T09:18:27;93711.16;;;27.29;39.64
39739;BME280;25422;48.286;8.484;2022-09-13T09:20:57;93708.31;;;27.20;40.26
39739;BME280;25422;48.286;8.484;2022-09-13T09:23:35;93706.13;;;26.98;41.24
39739;BME280;25422;48.286;8.484;2022-09-13T09:26:15;93721.34;;;27.32;39.90
39739;BME280;25422;48.286;8.484;2022-09-13T09:28:43;93720.72;;;26.52;40.32
39739;BME280;25422;48.286;8.484;2022-09-13T09:31:14;93725.53;;;26.89;39.87
39739;BME280;25422;48.286;8.484;2022-09-13T09:34:07;93729.19;;;27.52;39.83
39739;BME280;25422;48.286;8.484;2022-09-13T09:36:47;93730.53;;;28.17;39.12
39739;BME280;25422;48.286;8.484;2022-09-13T09:39:15;93725.97;;;27.26;40.38
39739;BME280;25422;48.286;8.484;2022-09-13T09:41:43;93733.69;;;27.33;38.51
39739;BME280;25422;48.286;8.484;2022-09-13T09:44:23;93740.31;;;27.16;39.55
39739;BME280;25422;48.286;8.484;2022-09-13T09:47:13;93748.72;;;27.04;38.44
39739;BME280;25422;48.286;8.484;2022-09-13T09:49:53;93742.78;;;26.83;40.18
39739;BME280;25422;48.286;8.484;2022-09-13T09:55:24;93742.50;;;27.63;39.46
39739;BME280;25422;48.286;8.484;2022-09-13T10:00:21;93752.25;;;28.02;40.30
39739;BME280;25422;48.286;8.484;2022-09-13T10:02:50;93744.13;;;28.45;37.65
39739;BME280;25422;48.286;8.484;2022-09-13T10:05:18;93743.88;;;27.60;38.13
39739;BME280;25422;48.286;8.484;2022-09-13T10:07:51;93740.53;;;27.92;37.75
39739;BME280;25422;48.286;8.484;2022-09-13T10:10:50;93745.34;;;28.34;36.71
39739;BME280;25422;48.286;8.484;2022-09-13T10:13:19;93740.44;;;28.03;36.41
39739;BME280;25422;48.286;8.484;2022-09-13T10:15:57;93735.38;;;27.96;38.14
39739;BME280;25422;48.286;8.484;2022-09-13T10:18:26;93727.50;;;28.00;36.57
39739;BME280;25422;48.286;8.484;2022-09-13T10:21:22;93728.66;;;28.18;36.08
39739;BME280;25422;48.286;8.484;2022-09-13T10:23:49;93721.38;;;28.37;36.27
39739;BME280;25422;48.286;8.484;2022-09-13T10:26:25;93726.38;;;28.44;35.39
39739;BME280;25422;48.286;8.484;2022-09-13T10:31:17;93722.16;;;27.56;33.74
39739;BME280;25422;48.286;8.484;2022-09-13T10:33:59;93719.50;;;28.38;35.29
39739;BME280;25422;48.286;8.484;2022-09-13T10:36:34;93717.28;;;28.92;34.55
39739;BME280;25422;48.286;8.484;2022-09-13T10:39:02;93712.19;;;29.51;33.35
39739;BME280;25422;48.286;8.484;2022-09-13T10:41:35;93719.03;;;29.16;33.00
39739;BME280;25422;48.286;8.484;2022-09-13T10:44:24;93708.88;;;29.54;32.14
39739;BME280;25422;48.286;8.484;2022-09-13T10:46:52;93716.09;;;29.45;30.96
39739;BME280;25422;48.286;8.484;2022-09-13T10:49:56;93716.47;;;28.91;30.51
39739;BME280;25422;48.286;8.484;2022-09-13T10:52:41;93715.25;;;28.84;30.90
39739;BME280;25422;48.286;8.484;2022-09-13T10:57:53;93705.88;;;29.70;29.93
39739;BME280;25422;48.286;8.484;2022-09-13T11:00:24;93690.59;;;30.30;27.95
39739;BME280;25422;48.286;8.484;2022-09-13T11:06:00;93686.75;;;30.44;27.96
39739;BME280;25422;48.286;8.484;2022-09-13T11:14:03;93678.31;;;29.73;27.83
39739;BME280;25422;48.286;8.484;2022-09-13T11:16:52;93668.88;;;30.35;25.68
39739;BME280;25422;48.286;8.484;2022-09-13T11:24:51;93668.41;;;30.78;26.92
39739;BME280;25422;48.286;8.484;2022-09-13T11:32:51;93682.94;;;31.63;26.37
39739;BME280;25422;48.286;8.484;2022-09-13T11:40:41;93677.25;;;33.43;24.25
39739;BME280;25422;48.286;8.484;2022-09-13T11:43:20;93670.31;;;33.54;24.67
39739;BME280;25422;48.286;8.484;2022-09-13T11:57:37;93669.88;;;33.52;24.86
39739;BME280;25422;48.286;8.484;2022-09-13T12:00:06;93660.94;;;34.24;23.18
39739;BME280;25422;48.286;8.484;2022-09-13T12:05:03;93664.38;;;33.61;24.01
39739;BME280;25422;48.286;8.484;2022-09-13T12:07:39;93659.53;;;32.98;25.57
39739;BME280;25422;48.286;8.484;2022-09-13T12:10:15;93639.69;;;32.50;24.55
39739;BME280;25422;48.286;8.484;2022-09-13T12:12:43;93637.81;;;32.24;25.49
39739;BME280;25422;48.286;8.484;2022-09-13T12:18:03;93640.56;;;31.40;27.60
39739;BME280;25422;48.286;8.484;2022-09-13T12:20:51;93643.47;;;30.81;28.50
39739;BME280;25422;48.286;8.484;2022-09-13T12:23:36;93640.50;;;31.72;26.06
39739;BME280;25422;48.286;8.484;2022-09-13T12:26:23;93641.03;;;31.51;27.17
39739;BME280;25422;48.286;8.484;2022-09-13T12:28:54;93640.38;;;30.20;28.60
39739;BME280;25422;48.286;8.484;2022-09-13T12:31:30;93634.28;;;30.37;28.35
39739;BME280;25422;48.286;8.484;2022-09-13T12:33:56;93645.22;;;30.09;28.29
39739;BME280;25422;48.286;8.484;2022-09-13T12:41:49;93637.41;;;29.01;29.77
39739;BME280;25422;48.286;8.484;2022-09-13T12:47:00;93639.63;;;27.62;33.13
39739;BME280;25422;48.286;8.484;2022-09-13T12:52:15;93648.00;;;27.12;34.61
39739;BME280;25422;48.286;8.484;2022-09-13T12:54:53;93646.19;;;27.51;33.90
39739;BME280;25422;48.286;8.484;2022-09-13T13:02:37;93644.44;;;27.41;35.24
39739;BME280;25422;48.286;8.484;2022-09-13T13:05:17;93638.72;;;27.67;35.62
39739;BME280;25422;48.286;8.484;2022-09-13T13:07:51;93639.28;;;28.40;34.64
39739;BME280;25422;48.286;8.484;2022-09-13T13:10:33;93635.41;;;28.79;33.68
39739;BME280;25422;48.286;8.484;2022-09-13T13:13:36;93633.78;;;27.93;34.66
39739;BME280;25422;48.286;8.484;2022-09-13T13:16:25;93630.03;;;28.93;32.83
39739;BME280;25422;48.286;8.484;2022-09-13T13:18:56;93630.69;;;28.05;33.53
39739;BME280;25422;48.286;8.484;2022-09-13T13:21:42;93632.56;;;27.85;33.27
39739;BME280;25422;48.286;8.484;2022-09-13T13:29:40;93625.88;;;27.20;35.60
39739;BME280;25422;48.286;8.484;2022-09-13T13:32:10;93631.69;;;27.52;34.89
39739;BME280;25422;48.286;8.484;2022-09-13T13:34:47;93627.69;;;27.49;33.83
39739;BME280;25422;48.286;8.484;2022-09-13T13:39:46;93635.81;;;27.44;34.55
39739;BME280;25422;48.286;8.484;2022-09-13T13:42:27;93628.50;;;27.50;34.10
39739;BME280;25422;48.286;8.484;2022-09-13T13:48:07;93635.84;;;28.20;33.58
39739;BME280;25422;48.286;8.484;2022-09-13T13:50:33;93627.28;;;28.32;32.90
39739;BME280;25422;48.286;8.484;2022-09-13T13:53:19;93619.44;;;28.03;31.47
39739;BME280;25422;48.286;8.484;2022-09-13T13:55:47;93618.78;;;27.73;32.28
39739;BME280;25422;48.286;8.484;2022-09-13T14:01:00;93615.91;;;27.45;32.04
39739;BME280;25422;48.286;8.484;2022-09-13T14:08:57;93611.53;;;28.58;31.23
39739;BME280;25422;48.286;8.484;2022-09-13T14:11:31;93614.41;;;28.62;31.65
39739;BME280;25422;48.286;8.484;2022-09-13T14:19:52;93594.69;;;28.53;31.81
39739;BME280;25422;48.286;8.484;2022-09-13T14:22:24;93586.69;;;28.15;32.01
39739;BME280;25422;48.286;8.484;2022-09-13T14:27:46;93586.00;;;27.90;32.62
39739;BME280;25422;48.286;8.484;2022-09-13T14:30:22;93579.84;;;27.70;33.67
39739;BME280;25422;48.286;8.484;2022-09-13T14:32:51;93569.44;;;27.25;34.05
39739;BME280;25422;48.286;8.484;2022-09-13T14:37:58;93568.97;;;27.18;34.85
39739;BME280;25422;48.286;8.484;2022-09-13T14:40:33;93557.13;;;26.76;35.58
39739;BME280;25422;48.286;8.484;2022-09-13T14:42:59;93564.19;;;26.67;36.34
39739;BME280;25422;48.286;8.484;2022-09-13T14:45:29;93561.22;;;26.68;36.71
39739;BME280;25422;48.286;8.484;2022-09-13T14:48:07;93553.44;;;26.67;37.23
39739;BME280;25422;48.286;8.484;2022-09-13T14:50:39;93550.75;;;26.72;37.94
39739;BME280;25422;48.286;8.484;2022-09-13T14:53:11;93546.34;;;26.81;37.34
39739;BME280;25422;48.286;8.484;2022-09-13T14:56:05;93538.72;;;26.64;37.21
39739;BME280;25422;48.286;8.484;2022-09-13T14:58:40;93544.69;;;26.85;37.85
39739;BME280;25422;48.286;8.484;2022-09-13T15:01:09;93532.84;;;26.62;37.54
39739;BME280;25422;48.286;8.484;2022-09-13T15:03:35;93530.97;;;26.87;37.17
39739;BME280;25422;48.286;8.484;2022-09-13T15:06:04;93537.94;;;26.88;38.46
39739;BME280;25422;48.286;8.484;2022-09-13T15:11:04;93522.31;;;26.71;37.23
39739;BME280;25422;48.286;8.484;2022-09-13T15:13:30;93521.34;;;26.62;37.30
39739;BME280;25422;48.286;8.484;2022-09-13T15:15:56;93526.41;;;26.39;37.86
39739;BME280;25422;48.286;8.484;2022-09-13T15:18:31;93517.75;;;26.18;37.63
39739;BME280;25422;48.286;8.484;2022-09-13T15:23:33;93510.25;;;26.20;37.68
39739;BME280;25422;48.286;8.484;2022-09-13T15:26:04;93502.16;;;26.25;38.55
39739;BME280;25422;48.286;8.484;2022-09-13T15:28:33;93494.16;;;26.20;38.70
39739;BME280;25422;48.286;8.484;2022-09-13T15:31:19;93495.00;;;26.15;39.57
39739;BME280;25422;48.286;8.484;2022-09-13T15:33:45;93493.47;;;26.09;40.47
39739;BME280;25422;48.286;8.484;2022-09-13T15:41:22;93493.94;;;25.82;40.29
39739;BME280;25422;48.286;8.484;2022-09-13T15:43:49;93488.88;;;25.80;40.00
39739;BME280;25422;48.286;8.484;2022-09-13T15:46:15;93501.28;;;25.71;41.39
39739;BME280;25422;48.286;8.484;2022-09-13T15:48:54;93487.06;;;25.70;40.72
39739;BME280;25422;48.286;8.484;2022-09-13T15:51:21;93492.38;;;25.75;40.98
39739;BME280;25422;48.286;8.484;2022-09-13T15:53:47;93481.09;;;25.79;41.34
39739;BME280;25422;48.286;8.484;2022-09-13T15:56:18;93487.22;;;25.84;41.56
39739;BME280;25422;48.286;8.484;2022-09-13T15:58:45;93487.78;;;25.81;42.09
39739;BME280;25422;48.286;8.484;2022-09-13T16:01:15;93491.03;;;25.78;42.61